Time;durP1;ratioP1;P1;durP2;ratioP2;P2;SDS_P1;SDS_P2;PMS_P1;PMS_P2;Temp;Humidity;BMP_temperature;BMP_pressure;BME280_temperature;BME280_humidity;BME280_pressure;Samples;Min_cycle;Max_cycle;Signal;HPM_P1;HPM_P2
2023/03/04 07:38:31;;;;;;;17.75;8.48;;;0.20;99.90;;;;;;4979153;28;20226;-93
2023/03/04 07:41:11;;;;;;;16.30;8.07;;;0.30;99.90;;;;;;4982623;28;20199;-93
2023/03/04 07:50:22;;;;;;;16.55;9.85;;;0.50;99.90;;;;;;4989808;28;20222;-93
2023/03/04 08:01:49;;;;;;;13.85;8.35;;;0.60;99.90;;;;;;4992240;28;20202;-92
2023/03/04 08:04:21;;;;;;;12.23;8.38;;;0.60;99.90;;;;;;4995212;28;20204;-93
2023/03/04 08:06:50;;;;;;;14.00;8.77;;;0.60;99.90;;;;;;4985214;28;20231;-92
2023/03/04 08:11:58;;;;;;;15.27;8.25;;;0.70;99.90;;;;;;4988503;28;20219;-93
2023/03/04 08:20:33;;;;;;;13.57;8.18;;;0.70;99.90;;;;;;4986098;28;20285;-92
2023/03/04 08:31:06;;;;;;;18.70;8.90;;;0.90;99.90;;;;;;5620394;23;20214;-93
2023/03/04 09:56:14;;;;;;;17.25;9.07;;;1.50;99.90;;;;;;4953912;28;20215;-70
2023/03/04 09:58:50;;;;;;;17.50;9.60;;;1.50;99.90;;;;;;4954140;29;20201;-69
2023/03/04 10:01:22;;;;;;;14.10;9.25;;;1.60;99.90;;;;;;4949786;28;20266;-70
2023/03/04 10:03:54;;;;;;;12.82;8.80;;;1.70;99.90;;;;;;4954452;28;20327;-70
2023/03/04 10:06:22;;;;;;;18.25;10.80;;;1.90;99.90;;;;;;4949948;28;20223;-69
2023/03/04 10:08:53;;;;;;;14.73;9.65;;;1.90;99.90;;;;;;4945953;28;20209;-69
2023/03/04 10:11:27;;;;;;;15.77;10.43;;;2.00;99.90;;;;;;4949608;28;20236;-69
2023/03/04 10:14:08;;;;;;;14.98;8.40;;;2.10;99.90;;;;;;4951320;28;20234;-69
2023/03/04 10:16:41;;;;;;;18.73;9.30;;;2.20;99.90;;;;;;4955086;28;20204;-68
2023/03/04 10:19:28;;;;;;;16.63;9.40;;;2.30;99.90;;;;;;4946682;28;20215;-69
2023/03/04 10:21:55;;;;;;;16.75;10.70;;;2.30;99.90;;;;;;4956666;28;20228;-70
2023/03/04 10:24:27;;;;;;;17.00;9.43;;;2.40;99.90;;;;;;4950768;29;20232;-70
2023/03/04 10:27:01;;;;;;;14.38;9.48;;;2.50;99.90;;;;;;4954354;29;20232;-69
2023/03/04 10:29:30;;;;;;;18.45;10.60;;;2.70;99.90;;;;;;4955545;29;20204;-70
2023/03/04 10:31:56;;;;;;;14.40;9.60;;;2.90;99.90;;;;;;4951656;28;20255;-70
2023/03/04 10:34:23;;;;;;;17.08;10.90;;;3.20;99.90;;;;;;4952366;28;20259;-70
2023/03/04 10:37:01;;;;;;;20.52;11.52;;;3.50;99.90;;;;;;4954652;28;20204;-70
2023/03/04 10:39:30;;;;;;;16.52;10.55;;;3.90;99.90;;;;;;4952614;29;20221;-70
2023/03/04 10:42:01;;;;;;;21.40;11.65;;;4.10;99.90;;;;;;4953310;28;20209;-70
2023/03/04 10:44:28;;;;;;;21.25;12.07;;;4.30;99.90;;;;;;4948951;29;20312;-70
2023/03/04 10:46:57;;;;;;;17.63;9.90;;;4.50;99.90;;;;;;4944314;28;20211;-70
2023/03/04 10:49:25;;;;;;;18.35;10.48;;;4.60;99.90;;;;;;4955329;29;20213;-70
2023/03/04 10:51:55;;;;;;;17.48;10.93;;;4.60;99.90;;;;;;4955755;29;20231;-70
2023/03/04 10:54:28;;;;;;;17.35;10.77;;;4.50;99.90;;;;;;4955283;28;20232;-70
2023/03/04 10:56:59;;;;;;;19.40;11.70;;;4.40;99.90;;;;;;4955131;28;20571;-70
2023/03/04 10:59:49;;;;;;;19.45;10.65;;;4.50;99.90;;;;;;4950661;28;20220;-70
2023/03/04 11:02:27;;;;;;;20.58;11.27;;;4.60;99.90;;;;;;4954360;28;20681;-70
2023/03/04 11:05:17;;;;;;;17.60;11.07;;;4.70;99.90;;;;;;4943076;29;20208;-70
2023/03/04 11:07:45;;;;;;;18.75;11.63;;;4.70;99.90;;;;;;4955713;28;20232;-70
2023/03/04 11:10:18;;;;;;;18.88;10.40;;;5.00;99.90;;;;;;4956935;28;20208;-69
2023/03/04 11:12:51;;;;;;;17.42;11.57;;;6.40;99.90;;;;;;4956040;28;20236;-69
2023/03/04 11:15:23;;;;;;;20.30;11.52;;;7.30;99.90;;;;;;4953418;28;20231;-70
2023/03/04 11:17:53;;;;;;;21.10;12.50;;;7.30;99.90;;;;;;4956029;28;20208;-70
2023/03/04 11:20:30;;;;;;;16.42;11.45;;;6.80;99.90;;;;;;4954551;28;20205;-70
2023/03/04 11:23:00;;;;;;;18.35;11.40;;;6.50;99.90;;;;;;4954956;28;20255;-70
2023/03/04 11:25:31;;;;;;;20.67;13.23;;;6.20;99.90;;;;;;4954759;28;20239;-70
2023/03/04 11:28:01;;;;;;;22.98;11.40;;;5.70;99.90;;;;;;4950340;28;20590;-70
2023/03/04 11:30:38;;;;;;;25.30;13.40;;;5.40;99.90;;;;;;4953865;28;20209;-69
2023/03/04 11:33:15;;;;;;;20.42;11.88;;;5.20;99.90;;;;;;4953899;28;20511;-69
2023/03/04 11:35:59;;;;;;;24.75;13.63;;;4.90;99.90;;;;;;4951081;28;20208;-69
2023/03/04 11:38:33;;;;;;;22.23;12.73;;;4.60;99.90;;;;;;4953083;28;20676;-69
2023/03/04 11:41:03;;;;;;;19.40;12.27;;;4.50;99.90;;;;;;4953728;28;20232;-69
2023/03/04 11:43:35;;;;;;;26.33;14.02;;;4.40;99.90;;;;;;4952491;28;20718;-71
2023/03/04 11:46:49;;;;;;;25.15;13.48;;;4.40;99.90;;;;;;4953518;28;20215;-70
2023/03/04 11:49:54;;;;;;;22.67;13.55;;;4.20;99.90;;;;;;4952020;29;20212;-70
2023/03/04 11:52:31;;;;;;;19.67;11.57;;;4.20;99.90;;;;;;4937572;28;20220;-69
2023/03/04 11:55:16;;;;;;;24.42;13.57;;;4.00;99.90;;;;;;4953653;28;20698;-69
2023/03/04 11:57:50;;;;;;;24.55;12.65;;;4.00;99.90;;;;;;4946678;28;20216;-68
2023/03/04 12:00:31;;;;;;;19.67;12.18;;;4.00;99.90;;;;;;4953855;29;20223;-68
2023/03/04 12:03:16;;;;;;;20.23;13.15;;;4.10;99.90;;;;;;4954068;28;20705;-67
2023/03/04 12:05:52;;;;;;;20.63;11.63;;;4.20;99.90;;;;;;4947388;28;20582;-68
2023/03/04 12:08:47;;;;;;;19.70;12.45;;;4.30;99.90;;;;;;4953480;28;20287;-68
2023/03/04 12:11:23;;;;;;;21.40;12.75;;;4.20;99.90;;;;;;4945000;28;20232;-68
2023/03/04 12:14:24;;;;;;;22.33;12.98;;;4.10;99.90;;;;;;4952424;28;20295;-68
2023/03/04 12:17:14;;;;;;;24.77;12.82;;;4.00;99.90;;;;;;4948106;28;20300;-68
2023/03/04 12:20:09;;;;;;;22.17;12.48;;;3.90;99.90;;;;;;4950151;28;20701;-67
2023/03/04 12:22:44;;;;;;;20.55;12.77;;;3.90;99.90;;;;;;4942109;29;20208;-67
2023/03/04 12:25:37;;;;;;;21.65;12.30;;;4.10;99.90;;;;;;4949677;28;20644;-68
2023/03/04 12:28:26;;;;;;;22.52;12.52;;;4.10;99.90;;;;;;4952095;28;20650;-68
2023/03/04 12:31:16;;;;;;;20.70;12.80;;;4.20;99.90;;;;;;4950693;28;20208;-68
2023/03/04 12:34:00;;;;;;;20.77;10.75;;;4.10;99.90;;;;;;4948816;28;20729;-68
2023/03/04 12:36:35;;;;;;;17.17;10.88;;;4.10;99.90;;;;;;4952658;28;20213;-68
2023/03/04 12:39:14;;;;;;;29.25;12.40;;;4.20;99.90;;;;;;4945774;29;20208;-67
2023/03/04 12:41:47;;;;;;;22.45;12.02;;;4.20;99.90;;;;;;4947810;28;20235;-67
2023/03/04 12:44:16;;;;;;;20.08;11.30;;;4.20;99.90;;;;;;4951740;28;20634;-68
2023/03/04 12:47:13;;;;;;;20.90;12.02;;;4.30;99.90;;;;;;4953059;28;20299;-68
2023/03/04 12:49:49;;;;;;;21.63;12.13;;;4.10;99.90;;;;;;4940180;28;20205;-70
2023/03/04 12:52:25;;;;;;;20.85;11.05;;;4.40;99.90;;;;;;4951640;28;20229;-68
2023/03/04 12:54:57;;;;;;;21.77;11.88;;;4.70;99.90;;;;;;4951996;28;20298;-68
2023/03/04 12:57:30;;;;;;;22.08;12.60;;;4.80;99.90;;;;;;4952121;28;20227;-70
2023/03/04 13:00:15;;;;;;;21.15;13.88;;;5.10;99.90;;;;;;4950916;28;20220;-69
2023/03/04 13:02:59;;;;;;;23.90;12.38;;;5.20;99.90;;;;;;4945556;29;20299;-70
2023/03/04 13:05:59;;;;;;;16.88;11.15;;;5.30;99.90;;;;;;4951017;28;20208;-68
2023/03/04 13:08:34;;;;;;;24.13;13.00;;;5.40;99.90;;;;;;4949049;28;20204;-70
2023/03/04 13:11:02;;;;;;;18.77;10.80;;;6.00;99.80;;;;;;4950469;28;20713;-70
2023/03/04 13:13:41;;;;;;;23.23;11.13;;;6.70;98.70;;;;;;4951749;28;20228;-69
2023/03/04 13:16:31;;;;;;;21.30;11.73;;;7.60;98.10;;;;;;4946861;28;20659;-67
2023/03/04 13:18:58;;;;;;;18.80;12.27;;;7.90;96.70;;;;;;4947494;28;20236;-68
2023/03/04 13:21:30;;;;;;;19.25;11.73;;;7.70;96.80;;;;;;4951516;28;20204;-68
2023/03/04 13:23:58;;;;;;;19.98;12.55;;;7.20;97.00;;;;;;4952061;28;20236;-67
2023/03/04 13:26:31;;;;;;;21.65;12.48;;;6.80;97.30;;;;;;4951926;28;20319;-68
2023/03/04 13:29:31;;;;;;;22.23;12.55;;;6.50;97.60;;;;;;4958677;28;20304;-70
2023/03/04 13:32:04;;;;;;;21.10;12.27;;;6.20;97.90;;;;;;4947208;28;20228;-70
2023/03/04 13:34:49;;;;;;;19.88;12.32;;;6.10;98.30;;;;;;4948498;28;20301;-70
2023/03/04 13:37:30;;;;;;;25.08;13.35;;;6.00;98.70;;;;;;4951764;28;20214;-70
2023/03/04 13:40:36;;;;;;;19.60;11.48;;;5.90;98.60;;;;;;4946945;28;20213;-69
2023/03/04 13:43:25;;;;;;;23.67;13.02;;;5.90;98.90;;;;;;4941538;28;20220;-69
2023/03/04 13:45:53;;;;;;;23.77;12.90;;;5.70;99.30;;;;;;4945900;28;20208;-67
2023/03/04 13:48:36;;;;;;;19.00;12.77;;;5.60;99.20;;;;;;4951272;28;20235;-68
2023/03/04 13:51:04;;;;;;;19.42;13.45;;;5.30;99.20;;;;;;4944575;28;20212;-67
2023/03/04 13:53:40;;;;;;;27.27;13.82;;;5.10;99.40;;;;;;4950755;28;20228;-68
2023/03/04 13:56:22;;;;;;;24.23;13.52;;;4.90;99.70;;;;;;4951559;28;20215;-68
2023/03/04 13:58:51;;;;;;;24.95;13.60;;;4.80;99.90;;;;;;4945391;28;20259;-68
2023/03/04 14:01:25;;;;;;;22.95;12.73;;;4.50;99.90;;;;;;4944752;28;20219;-67
2023/03/04 14:03:53;;;;;;;18.75;12.63;;;4.40;99.90;;;;;;4950795;28;20635;-68
2023/03/04 14:06:23;;;;;;;19.55;10.82;;;4.30;99.90;;;;;;4960011;28;20576;-68
2023/03/04 14:08:53;;;;;;;17.25;10.02;;;4.20;99.90;;;;;;4944268;28;20208;-70
2023/03/04 14:11:30;;;;;;;15.80;9.40;;;4.10;99.90;;;;;;4944589;28;20210;-70
2023/03/04 14:13:59;;;;;;;16.60;9.70;;;3.90;99.90;;;;;;4950726;28;20332;-70
2023/03/04 14:16:29;;;;;;;13.65;8.85;;;3.80;99.90;;;;;;4950671;28;20690;-69
2023/03/04 14:19:07;;;;;;;17.70;10.77;;;3.60;99.90;;;;;;4945298;28;20656;-70
2023/03/04 14:21:38;;;;;;;16.60;10.90;;;3.80;99.90;;;;;;4947491;28;20216;-70
2023/03/04 14:24:12;;;;;;;20.63;9.15;;;3.90;99.90;;;;;;4955239;28;20252;-70
2023/03/04 14:26:39;;;;;;;20.02;10.25;;;4.00;99.90;;;;;;4954333;28;20204;-69
2023/03/04 14:29:21;;;;;;;19.95;10.57;;;3.90;99.90;;;;;;4963681;28;20733;-69
2023/03/04 14:31:49;;;;;;;15.88;10.50;;;3.70;99.90;;;;;;4954489;28;20224;-70
2023/03/04 14:34:24;;;;;;;20.23;10.75;;;3.70;99.90;;;;;;4954180;28;20660;-69
2023/03/04 14:36:51;;;;;;;16.92;10.65;;;3.70;99.90;;;;;;4955164;28;20218;-71
2023/03/04 14:39:23;;;;;;;14.32;8.75;;;3.60;99.90;;;;;;5047880;23;20310;-72
2023/03/04 14:41:53;;;;;;;16.65;9.18;;;3.70;99.90;;;;;;5000039;28;20712;-73
2023/03/04 14:44:29;;;;;;;21.08;11.60;;;3.70;99.90;;;;;;4989021;28;20224;-72
2023/03/04 14:47:00;;;;;;;15.02;8.88;;;3.60;99.90;;;;;;4974808;28;20632;-72
2023/03/04 14:49:28;;;;;;;15.98;9.15;;;3.60;99.90;;;;;;4974677;28;20208;-72
2023/03/04 14:51:56;;;;;;;19.92;10.88;;;3.40;99.90;;;;;;4979212;28;20227;-72
2023/03/04 14:54:31;;;;;;;11.50;7.65;;;3.30;99.90;;;;;;4978576;28;20586;-72
2023/03/04 14:56:59;;;;;;;15.00;9.07;;;3.20;99.90;;;;;;4974376;28;20211;-72
2023/03/04 14:59:32;;;;;;;18.92;10.10;;;3.10;99.90;;;;;;4979170;28;20208;-72
2023/03/04 15:02:19;;;;;;;20.63;10.25;;;3.10;99.90;;;;;;4973904;28;20207;-72
2023/03/04 15:04:48;;;;;;;18.13;9.55;;;3.10;99.90;;;;;;4979151;28;20258;-72
2023/03/04 15:09:50;;;;;;;22.35;10.77;;;3.10;99.90;;;;;;4975177;28;20669;-71
2023/03/04 15:12:24;;;;;;;20.63;11.50;;;3.00;99.90;;;;;;4972744;28;20228;-71
2023/03/04 15:14:52;;;;;;;25.38;12.27;;;3.00;99.90;;;;;;4946403;28;20224;-72
2023/03/04 15:17:36;;;;;;;22.52;11.50;;;3.00;99.90;;;;;;4951085;28;20264;-72
2023/03/04 15:20:20;;;;;;;18.95;10.65;;;3.00;99.90;;;;;;4950240;28;20231;-72
2023/03/04 15:22:58;;;;;;;18.15;11.35;;;2.90;99.90;;;;;;4939371;28;20235;-71
2023/03/04 15:25:27;;;;;;;19.20;11.00;;;2.90;99.90;;;;;;4937972;28;20224;-73
2023/03/04 15:27:54;;;;;;;20.48;10.73;;;2.80;99.90;;;;;;4946879;28;20232;-72
2023/03/04 15:30:23;;;;;;;21.88;11.38;;;2.70;99.90;;;;;;4950444;28;20608;-71
2023/03/04 15:32:50;;;;;;;23.88;9.35;;;2.70;99.90;;;;;;4951192;28;20287;-72
2023/03/04 15:35:18;;;;;;;16.67;9.20;;;2.70;99.90;;;;;;4950358;28;20231;-71
2023/03/04 15:37:46;;;;;;;17.58;10.95;;;2.80;99.90;;;;;;4947336;28;20208;-72
2023/03/04 15:40:17;;;;;;;14.07;9.15;;;2.80;99.90;;;;;;4952179;28;20213;-72
2023/03/04 15:42:46;;;;;;;19.48;11.07;;;2.80;99.90;;;;;;4951248;28;20233;-72
2023/03/04 15:45:21;;;;;;;21.58;9.32;;;2.90;99.90;;;;;;4951599;28;20706;-72
2023/03/04 15:47:48;;;;;;;15.75;9.32;;;2.90;99.90;;;;;;4944959;28;20219;-71
2023/03/04 15:50:15;;;;;;;15.50;8.50;;;2.80;99.90;;;;;;4951990;28;20303;-72
2023/03/04 15:52:42;;;;;;;15.48;9.05;;;2.80;99.90;;;;;;4952382;28;20234;-72
2023/03/04 15:55:13;;;;;;;14.40;8.20;;;2.70;99.90;;;;;;4951214;28;20213;-73
2023/03/04 15:57:40;;;;;;;24.05;10.80;;;2.70;99.90;;;;;;4952094;28;20223;-73
2023/03/04 16:00:11;;;;;;;20.02;9.57;;;2.80;99.90;;;;;;4952153;28;20216;-73
2023/03/04 16:02:38;;;;;;;20.10;9.27;;;2.70;99.90;;;;;;4951859;28;20224;-73
2023/03/04 16:05:06;;;;;;;19.52;9.27;;;2.70;99.90;;;;;;4951633;28;20235;-72
2023/03/04 16:07:33;;;;;;;18.30;8.45;;;2.80;99.90;;;;;;4950735;28;20247;-72
2023/03/04 16:10:02;;;;;;;12.90;8.25;;;2.80;99.90;;;;;;4949041;28;20239;-73
2023/03/04 16:12:29;;;;;;;17.70;8.85;;;2.70;99.90;;;;;;4952410;28;20227;-72
2023/03/04 16:14:56;;;;;;;11.07;7.97;;;2.80;99.90;;;;;;4952519;28;20628;-72
2023/03/04 16:17:24;;;;;;;18.17;9.00;;;2.80;99.90;;;;;;4951883;28;20212;-72
2023/03/04 16:19:50;;;;;;;13.63;8.23;;;2.70;99.90;;;;;;4951431;28;20215;-72
2023/03/04 16:22:22;;;;;;;17.25;8.73;;;2.70;99.90;;;;;;4950934;28;20719;-72
2023/03/04 16:24:50;;;;;;;20.17;9.35;;;2.70;99.90;;;;;;4947464;28;20240;-72
2023/03/04 16:27:18;;;;;;;19.15;9.50;;;2.70;99.90;;;;;;4948929;28;20239;-72
2023/03/04 16:29:45;;;;;;;12.63;7.30;;;2.70;99.90;;;;;;4949335;28;20276;-72
2023/03/04 16:32:12;;;;;;;18.55;8.55;;;2.60;99.90;;;;;;4948916;28;20712;-70
2023/03/04 16:34:40;;;;;;;21.40;9.02;;;2.60;99.90;;;;;;4948516;28;20299;-72
2023/03/04 16:37:17;;;;;;;14.80;7.88;;;2.50;99.90;;;;;;4949921;28;20213;-71
2023/03/04 16:39:44;;;;;;;13.07;8.18;;;2.50;99.90;;;;;;4949237;28;20263;-72
2023/03/04 16:42:15;;;;;;;15.00;8.32;;;2.40;99.90;;;;;;4947997;28;20299;-72
2023/03/04 16:44:42;;;;;;;20.05;10.00;;;2.40;99.90;;;;;;4947779;28;20255;-72
2023/03/04 16:47:09;;;;;;;21.45;10.68;;;2.30;99.90;;;;;;4949366;28;20205;-72
2023/03/04 16:49:35;;;;;;;23.30;9.98;;;2.30;99.90;;;;;;4949617;28;20216;-72
2023/03/04 16:52:04;;;;;;;18.60;9.80;;;2.20;99.90;;;;;;4949449;28;20219;-72
2023/03/04 16:54:33;;;;;;;16.67;9.05;;;2.20;99.90;;;;;;4946756;28;20707;-72
2023/03/04 16:57:00;;;;;;;19.23;11.23;;;2.20;99.90;;;;;;4949416;28;20220;-72
2023/03/04 16:59:27;;;;;;;19.80;10.60;;;2.20;99.90;;;;;;4949247;28;20212;-73
2023/03/04 17:01:54;;;;;;;14.35;8.95;;;2.20;99.90;;;;;;4949392;28;20836;-73
2023/03/04 17:04:22;;;;;;;17.63;8.38;;;2.20;99.90;;;;;;4948627;28;20778;-72
2023/03/04 17:06:49;;;;;;;17.08;8.40;;;2.20;99.90;;;;;;4932711;28;20304;-69
2023/03/04 17:09:17;;;;;;;17.20;8.20;;;2.20;99.90;;;;;;4943326;28;20215;-73
2023/03/04 17:11:43;;;;;;;15.18;7.90;;;2.20;99.90;;;;;;4947971;28;20221;-70
2023/03/04 17:14:10;;;;;;;14.93;7.85;;;2.20;99.90;;;;;;4948435;28;20247;-70
2023/03/04 17:16:37;;;;;;;13.13;8.00;;;2.10;99.90;;;;;;4948960;28;20208;-73
2023/03/04 17:19:03;;;;;;;16.02;9.52;;;2.10;99.90;;;;;;4949892;28;20200;-70
2023/03/04 17:21:30;;;;;;;15.07;8.48;;;2.10;99.90;;;;;;4949230;28;20204;-70
2023/03/04 17:23:57;;;;;;;15.15;9.75;;;2.10;99.90;;;;;;4949906;28;20231;-69
2023/03/04 17:26:25;;;;;;;14.98;8.40;;;2.10;99.90;;;;;;4951782;28;20235;-70
2023/03/04 17:28:51;;;;;;;16.52;7.82;;;2.10;99.90;;;;;;4949153;28;20208;-71
2023/03/04 17:31:20;;;;;;;12.77;7.45;;;2.20;99.90;;;;;;4949007;28;20200;-71
2023/03/04 17:33:47;;;;;;;12.60;8.00;;;2.20;99.90;;;;;;4951308;28;20220;-73
2023/03/04 17:36:16;;;;;;;16.65;7.90;;;2.30;99.90;;;;;;4949594;28;20204;-73
2023/03/04 17:38:43;;;;;;;16.45;8.23;;;2.20;99.90;;;;;;4948673;28;20215;-73
2023/03/04 17:41:14;;;;;;;19.50;8.73;;;2.20;99.90;;;;;;4949101;28;20263;-74
2023/03/04 17:43:44;;;;;;;15.02;7.90;;;2.30;99.90;;;;;;4948465;28;20723;-72
2023/03/04 17:46:13;;;;;;;15.73;7.32;;;2.30;99.90;;;;;;4947909;28;20236;-72
2023/03/04 17:48:40;;;;;;;19.10;8.88;;;2.30;99.90;;;;;;4948706;28;20208;-72
2023/03/04 17:51:07;;;;;;;16.52;8.57;;;2.40;99.90;;;;;;4948610;28;20204;-71
2023/03/04 17:53:34;;;;;;;13.57;7.88;;;2.40;99.90;;;;;;4947994;28;20220;-71
2023/03/04 17:56:02;;;;;;;12.55;7.45;;;2.40;99.90;;;;;;4948553;28;20208;-71
2023/03/04 17:58:30;;;;;;;15.95;9.15;;;2.40;99.90;;;;;;4949019;28;20204;-72
2023/03/04 18:01:04;;;;;;;14.10;9.00;;;2.40;99.90;;;;;;4948621;28;20204;-72
2023/03/04 18:03:31;;;;;;;14.00;7.70;;;2.40;99.90;;;;;;4948038;28;20216;-72
2023/03/04 18:05:58;;;;;;;14.20;7.85;;;2.40;99.90;;;;;;4948831;28;20691;-72
2023/03/04 18:08:24;;;;;;;12.57;6.45;;;2.30;99.90;;;;;;4948727;28;20215;-72
2023/03/04 18:10:51;;;;;;;21.45;9.15;;;2.40;99.90;;;;;;4948474;28;20696;-71
2023/03/04 18:13:18;;;;;;;14.13;7.80;;;2.40;99.90;;;;;;4948586;28;21040;-72
2023/03/04 18:15:45;;;;;;;17.60;7.28;;;2.40;99.90;;;;;;4948103;28;20216;-73
2023/03/04 18:18:13;;;;;;;20.20;10.55;;;2.40;99.90;;;;;;4943994;28;20558;-73
2023/03/04 18:20:39;;;;;;;15.07;7.82;;;2.40;99.90;;;;;;4945919;28;20464;-73
2023/03/04 18:23:06;;;;;;;12.38;7.88;;;2.40;99.90;;;;;;4947942;28;20229;-73
2023/03/04 18:25:33;;;;;;;15.55;9.20;;;2.40;99.90;;;;;;4947891;28;20936;-73
2023/03/04 18:28:00;;;;;;;15.60;8.63;;;2.40;99.90;;;;;;4947847;28;20659;-73
2023/03/04 18:30:26;;;;;;;15.57;8.48;;;2.40;99.90;;;;;;4948121;28;20200;-73
2023/03/04 18:32:54;;;;;;;12.27;8.20;;;2.40;99.90;;;;;;4947690;28;20582;-72
2023/03/04 18:35:23;;;;;;;15.30;8.43;;;2.40;99.90;;;;;;4948633;28;20216;-73
2023/03/04 18:37:50;;;;;;;14.45;7.38;;;2.40;99.90;;;;;;4947756;28;20275;-73
2023/03/04 18:40:17;;;;;;;16.02;8.98;;;2.40;99.90;;;;;;4948412;28;20204;-73
2023/03/04 18:42:44;;;;;;;12.10;7.45;;;2.40;99.90;;;;;;4947527;28;20231;-73
2023/03/04 18:45:11;;;;;;;22.95;9.15;;;2.30;99.90;;;;;;4948518;28;20769;-73
2023/03/04 18:47:39;;;;;;;22.48;8.80;;;2.30;99.90;;;;;;4947993;28;20213;-73
2023/03/04 18:50:07;;;;;;;19.85;8.50;;;2.20;99.90;;;;;;4948586;28;20627;-73
2023/03/04 18:52:36;;;;;;;14.52;8.43;;;2.30;99.90;;;;;;4947709;28;20662;-73
2023/03/04 18:55:03;;;;;;;19.17;7.35;;;2.30;99.90;;;;;;4947785;28;20778;-73
2023/03/04 18:57:29;;;;;;;14.10;7.75;;;2.30;99.90;;;;;;4948518;28;20294;-73
2023/03/04 18:59:58;;;;;;;15.57;7.78;;;2.30;99.90;;;;;;4940851;28;20327;-73
2023/03/04 19:02:29;;;;;;;11.43;6.03;;;2.20;99.90;;;;;;4948162;28;20215;-72
2023/03/04 19:05:00;;;;;;;11.73;7.25;;;2.00;99.90;;;;;;4939832;28;20301;-73
2023/03/04 19:07:27;;;;;;;18.00;8.02;;;2.00;99.90;;;;;;4950032;28;20262;-73
2023/03/04 19:09:55;;;;;;;13.27;7.53;;;2.00;99.90;;;;;;4951517;28;20204;-73
2023/03/04 19:12:22;;;;;;;15.48;8.63;;;2.00;99.90;;;;;;4951918;28;20208;-73
2023/03/04 19:14:49;;;;;;;19.10;8.60;;;2.00;99.90;;;;;;4950316;28;20228;-73
2023/03/04 19:17:15;;;;;;;17.60;8.32;;;1.90;99.90;;;;;;4951616;28;20597;-72
2023/03/04 19:19:42;;;;;;;12.95;6.78;;;1.90;99.90;;;;;;4951176;28;20213;-73
2023/03/04 19:22:09;;;;;;;12.38;7.40;;;2.00;99.90;;;;;;4951599;28;20205;-73
2023/03/04 19:24:36;;;;;;;15.73;8.73;;;2.00;99.90;;;;;;4950573;28;20287;-72
2023/03/04 19:27:04;;;;;;;15.60;8.20;;;2.00;99.90;;;;;;4951361;28;20671;-72
2023/03/04 19:29:31;;;;;;;19.58;9.10;;;2.00;99.90;;;;;;4951778;28;20259;-74
2023/03/04 19:31:58;;;;;;;14.18;7.60;;;2.00;99.90;;;;;;4944451;28;20400;-73
2023/03/04 19:34:24;;;;;;;22.40;10.27;;;2.10;99.90;;;;;;4947705;28;20248;-72
2023/03/04 19:36:51;;;;;;;12.10;7.78;;;2.10;99.90;;;;;;4950634;28;20592;-72
2023/03/04 19:39:18;;;;;;;15.55;8.00;;;2.20;99.90;;;;;;4951282;28;20212;-73
2023/03/04 19:41:45;;;;;;;14.27;7.60;;;2.20;99.90;;;;;;4950556;28;20258;-73
2023/03/04 19:44:13;;;;;;;16.55;8.18;;;2.30;99.90;;;;;;4950587;28;20798;-74
2023/03/04 19:46:43;;;;;;;10.73;7.00;;;2.30;99.90;;;;;;4952621;28;21008;-71
2023/03/04 19:49:10;;;;;;;16.58;8.27;;;2.20;99.90;;;;;;4992632;23;20235;-93
2023/03/04 19:51:37;;;;;;;15.30;8.25;;;2.30;99.90;;;;;;4992150;28;20237;-94
2023/03/04 19:54:04;;;;;;;18.15;8.75;;;2.30;99.90;;;;;;4981564;28;20231;-93
2023/03/04 19:56:31;;;;;;;15.05;7.82;;;2.30;99.90;;;;;;4989341;28;20204;-92
2023/03/04 19:58:58;;;;;;;14.38;8.02;;;2.30;99.90;;;;;;4994910;28;20282;-92
2023/03/04 20:01:29;;;;;;;15.23;8.27;;;2.30;99.90;;;;;;4982579;28;20215;-92
2023/03/04 20:03:57;;;;;;;14.15;7.53;;;2.20;99.90;;;;;;4991981;28;20226;-91
2023/03/04 20:09:07;;;;;;;14.35;7.43;;;2.20;99.90;;;;;;5001954;28;20235;-91
2023/03/04 20:11:34;;;;;;;13.98;7.78;;;2.20;99.90;;;;;;4981741;28;20466;-91
2023/03/04 20:14:03;;;;;;;19.88;7.72;;;2.20;99.90;;;;;;4981430;28;20298;-91
2023/03/04 20:16:32;;;;;;;10.73;7.40;;;2.20;99.90;;;;;;4983780;28;20208;-91
2023/03/04 20:19:00;;;;;;;20.05;11.07;;;2.20;99.90;;;;;;4986894;28;20314;-91
2023/03/04 20:21:28;;;;;;;18.90;9.63;;;2.20;99.90;;;;;;4990343;28;20204;-93
2023/03/04 20:26:43;;;;;;;22.92;9.77;;;2.20;99.90;;;;;;4989838;28;20204;-93
2023/03/04 20:29:10;;;;;;;20.38;9.07;;;2.30;99.90;;;;;;4974066;28;20238;-91
2023/03/04 20:31:52;;;;;;;18.50;9.43;;;2.20;99.90;;;;;;5009041;28;20197;-92
2023/03/04 20:34:19;;;;;;;13.00;8.00;;;2.20;99.90;;;;;;4976712;28;20243;-92
2023/03/04 20:36:46;;;;;;;12.55;7.53;;;2.20;99.90;;;;;;4981498;28;20218;-93
2023/03/04 20:39:13;;;;;;;14.35;7.55;;;2.20;99.90;;;;;;5001302;28;20289;-92
2023/03/04 20:41:43;;;;;;;15.43;7.82;;;2.20;99.90;;;;;;4983103;28;20283;-92
2023/03/04 20:44:11;;;;;;;14.32;8.30;;;2.20;99.90;;;;;;4984112;28;20790;-92
2023/03/04 20:46:52;;;;;;;15.75;8.15;;;2.30;99.90;;;;;;4994770;28;20291;-92
2023/03/04 20:49:24;;;;;;;16.88;9.27;;;2.30;99.90;;;;;;4997750;28;20432;-91
2023/03/04 20:51:52;;;;;;;12.05;7.63;;;2.30;99.90;;;;;;5005218;28;20196;-92
2023/03/04 20:54:21;;;;;;;15.80;9.15;;;2.30;99.90;;;;;;4986965;28;20219;-92
2023/03/04 20:56:48;;;;;;;15.23;7.20;;;2.30;99.90;;;;;;4996118;28;20199;-93
2023/03/04 20:59:15;;;;;;;19.35;9.07;;;2.30;99.90;;;;;;4989842;28;20295;-92
2023/03/04 21:01:47;;;;;;;14.52;7.90;;;2.30;99.90;;;;;;4980961;28;20673;-92
2023/03/04 21:04:14;;;;;;;18.25;8.20;;;2.30;99.90;;;;;;4978340;28;20354;-92
2023/03/04 21:06:47;;;;;;;16.55;8.90;;;2.20;99.90;;;;;;4983291;28;20214;-91
2023/03/04 21:09:26;;;;;;;15.88;9.05;;;2.10;99.90;;;;;;4996389;28;20267;-90
2023/03/04 21:12:16;;;;;;;13.90;7.40;;;2.00;99.90;;;;;;4969205;28;20236;-93
2023/03/04 21:14:59;;;;;;;15.38;6.45;;;2.00;99.90;;;;;;4979844;28;20211;-92
2023/03/04 21:17:28;;;;;;;15.13;7.75;;;2.00;99.90;;;;;;4979687;28;20239;-92
2023/03/04 21:19:56;;;;;;;13.40;7.60;;;2.00;99.90;;;;;;4982652;28;20220;-91
2023/03/04 21:22:25;;;;;;;19.85;8.90;;;2.00;99.90;;;;;;4980907;28;20204;-92
2023/03/04 21:24:54;;;;;;;15.73;8.60;;;1.90;99.90;;;;;;4984096;28;20195;-92
2023/03/04 21:27:23;;;;;;;18.50;9.68;;;1.90;99.90;;;;;;4984590;28;20230;-91
2023/03/04 21:29:51;;;;;;;14.60;8.38;;;1.90;99.90;;;;;;4989960;28;20234;-91
2023/03/04 21:32:31;;;;;;;14.95;9.63;;;1.80;99.90;;;;;;4987155;28;20683;-72
2023/03/04 21:34:58;;;;;;;23.10;8.88;;;1.80;99.90;;;;;;4967707;28;20366;-72
2023/03/04 21:37:28;;;;;;;17.85;9.15;;;1.90;99.90;;;;;;4969434;28;20254;-72
2023/03/04 21:39:56;;;;;;;15.50;9.20;;;1.90;99.90;;;;;;4959080;28;20204;-72
2023/03/04 21:42:23;;;;;;;15.45;9.93;;;1.90;99.90;;;;;;4954730;28;20204;-72
2023/03/04 21:44:50;;;;;;;23.38;9.60;;;1.90;99.90;;;;;;4967344;28;20211;-72
2023/03/04 21:47:17;;;;;;;18.75;8.75;;;2.00;99.90;;;;;;4946475;28;20754;-72
2023/03/04 21:49:45;;;;;;;17.63;9.48;;;2.00;99.90;;;;;;4954740;28;20296;-72
2023/03/04 21:52:14;;;;;;;15.00;9.43;;;2.00;99.90;;;;;;4966310;28;20212;-72
2023/03/04 21:54:41;;;;;;;16.30;9.15;;;2.10;99.90;;;;;;4965535;28;20223;-72
2023/03/04 21:57:07;;;;;;;16.35;7.75;;;2.20;99.90;;;;;;4968174;28;20208;-72
2023/03/04 21:59:34;;;;;;;20.80;9.23;;;2.20;99.90;;;;;;4968825;28;20594;-71
2023/03/04 22:02:01;;;;;;;18.65;10.05;;;2.20;99.90;;;;;;4968677;28;20223;-72
2023/03/04 22:04:28;;;;;;;14.13;8.30;;;2.20;99.90;;;;;;4968345;28;20211;-72
2023/03/04 22:06:56;;;;;;;21.02;9.77;;;2.20;99.90;;;;;;4968843;28;20203;-72
2023/03/04 22:09:22;;;;;;;16.98;10.05;;;2.20;99.90;;;;;;4969569;28;20207;-72
2023/03/04 22:11:49;;;;;;;22.10;10.05;;;2.30;99.90;;;;;;4967857;28;20286;-72
2023/03/04 22:14:16;;;;;;;11.32;7.43;;;2.30;99.90;;;;;;4950530;28;20228;-72
2023/03/04 22:16:42;;;;;;;19.17;8.57;;;2.30;99.90;;;;;;4949371;28;20215;-72
2023/03/04 22:19:09;;;;;;;18.15;9.23;;;2.30;99.90;;;;;;4949345;28;21101;-72
2023/03/04 22:21:36;;;;;;;27.27;10.32;;;2.40;99.90;;;;;;4964630;28;20628;-71
2023/03/04 22:24:05;;;;;;;15.27;8.18;;;2.40;99.90;;;;;;4967844;28;20698;-72
2023/03/04 22:26:32;;;;;;;17.98;8.90;;;2.30;99.90;;;;;;4961950;28;20216;-72
2023/03/04 22:29:00;;;;;;;14.15;7.85;;;2.40;99.90;;;;;;4967401;28;20622;-72
2023/03/04 22:31:30;;;;;;;17.50;9.32;;;2.30;99.90;;;;;;4968764;28;20215;-72
2023/03/04 22:33:56;;;;;;;13.07;8.65;;;2.30;99.90;;;;;;4968521;28;20220;-72
2023/03/04 22:36:23;;;;;;;18.65;9.52;;;2.40;99.90;;;;;;4964068;28;20267;-72
2023/03/04 22:38:50;;;;;;;18.65;8.35;;;2.40;99.90;;;;;;4949165;28;20219;-72
2023/03/04 22:41:19;;;;;;;19.65;10.18;;;2.40;99.90;;;;;;4949574;28;20960;-72
2023/03/04 22:43:46;;;;;;;13.43;8.48;;;2.40;99.90;;;;;;4952221;28;20235;-72
2023/03/04 22:46:14;;;;;;;16.27;9.27;;;2.40;99.90;;;;;;4953301;28;20207;-72